• Join FlightAware (Why Join?)
  • Login
  • US Flag 
02:26PM EDT


 

Airport Tracker/Info


-or-


 

Live Flight TrackerFlight Track Log ✈ UAL407 ✈ 09-May-2013 ✈ KALB - KORD

Flight Track Log - Related Links

Times and Time Zones

All times are in EDT time to prevent confusion due to time zone crossing. See the UAL407 flight status page for this flight to view local times or setup timezone preferences in your user account.

Time Position Orientation Groundspeed Altitude Reporting Facility
EDT Latitude Longitude Course Direction KTS MPH feet Rate Location/Type
06:06PM 42.7278 -73.8081 283° West 150 173 1,300  Level Boston Center
06:07PM 42.7047 -73.8075 179° South 156 180 2,100 1,620 Climbing Boston Center
06:08PM 42.7083 -73.8697 275° West 218 251 3,800 2,280 Climbing Boston Center
06:09PM 42.8017 -74.1595 284° West  Level FlightAware Approximate
06:09PM 42.7594 -73.9361 316° Northwest 284 327 6,700  Level Boston Center
06:10PM 42.8239 -74.2812 284° West  Level FlightAware Approximate
06:10PM 42.8147 -74.0081 316° Northwest 284 327 10,200  Level Boston Center
06:11PM 42.8450 -74.4033 283° West  Level FlightAware Approximate
06:11PM 42.8761 -74.0861 317° Northwest 297 342 11,800  Level Boston Center
06:12PM 42.8654 -74.5256 283° West  Level FlightAware Approximate
06:12PM 42.9436 -74.1731 317° Northwest 319 367 14,500  Level Boston Center
06:13PM 43.0150 -74.2689 316° Northwest 350 403 17,000 2,100 Climbing Boston Center
06:14PM 43.0572 -74.3639 301° West 355 409 18,800 1,980 Climbing Boston Center
06:15PM 43.0647 -74.5289 274° West 364 419 21,000 2,100 Climbing Boston Center
06:16PM 43.0764 -74.6828 276° West 387 445 23,000 1,680 Climbing Boston Center
06:17PM 43.0858 -74.8367 275° West 405 466 24,400 1,500 Climbing Boston Center
06:18PM 43.0947 -75.0078 274° West 412 474 26,300 1,680 Climbing Boston Center
06:19PM 43.1089 -75.1989 276° West 418 481 28,100 1,680 Climbing Boston Center
06:20PM 43.1153 -75.3642 273° West 425 489 29,700 1,200 Climbing Boston Center
06:21PM 43.1256 -75.5297 275° West 430 495 30,500 1,200 Climbing Boston Center
06:22PM 43.1356 -75.6953 275° West 436 502 32,100 1,560 Climbing Boston Center
06:23PM 43.1453 -75.8608 275° West 443 510 33,700 1,260 Climbing Boston Center
06:24PM 43.1528 -76.0236 274° West 443 510 34,700 1,080 Climbing Boston Center
06:26PM 43.1619 -76.2878 273° West 415 478 36,700 1,020 Climbing Cleveland Center
06:27PM 43.1597 -76.4503 269° West 420 483 37,500 540 Climbing Cleveland Center
06:28PM 43.1592 -76.6125 270° West 425 489 37,800 240 Climbing Cleveland Center
06:29PM 43.1589 -76.7892 270° West 425 489 38,000 60 Climbing Cleveland Center
06:30PM 43.1597 -76.9514 270° West 425 489 38,000  Level Cleveland Center
06:31PM 43.1583 -77.1108 269° West 425 489 38,000  Level Cleveland Center
06:32PM 43.1547 -77.2733 268° West 425 489 38,000  Level Cleveland Center
06:33PM 43.1550 -77.4328 270° West 425 489 38,000  Level Cleveland Center
06:34PM 43.1531 -77.5922 269° West 425 489 38,000  Level Cleveland Center
06:35PM 43.1508 -77.7544 269° West 425 489 38,000  Level Cleveland Center
06:36PM 43.1486 -77.9169 269° West 425 489 38,000  Level Cleveland Center
06:37PM 43.1481 -78.0819 270° West 425 489 38,000  Level Cleveland Center
06:38PM 43.1453 -78.2442 269° West 430 495 38,000  Level Cleveland Center
06:39PM 43.1439 -78.3922 269° West 430 495 38,000  Level Cleveland Center
06:40PM 43.1364 -78.5519 266° West 430 495 38,000 -60 Level Cleveland Center
06:41PM 43.1350 -78.7114 269° West 425 489 37,900  Descending Cleveland Center
06:42PM 43.1289 -78.8681 267° West 425 489 38,000 60 Climbing Cleveland Center
06:42PM 43.1167 -78.9333 256° West 420 483 38,000  Level Toronto Center
06:43PM 43.1167 -79.0667 270° West 410 472 38,000  Level Toronto Center
06:44PM 43.1000 -79.2167 261° West 410 472 38,000  Level Toronto Center
06:45PM 43.1000 -79.3833 270° West 410 472 38,000  Level Toronto Center
06:46PM 43.1000 -79.5500 270° West 410 472 38,000  Level Toronto Center
06:47PM 43.0833 -79.6833 260° West 410 472 38,000  Level Toronto Center
06:48PM 43.0833 -79.8333 270° West 410 472 38,000  Level Toronto Center
06:49PM 43.0833 -80.0000 270° West 410 472 38,000  Level Toronto Center
06:50PM 43.0667 -80.1500 261° West 410 472 38,000  Level Toronto Center
06:51PM 43.0667 -80.3000 270° West 410 472 38,000  Level Toronto Center
06:52PM 43.0667 -80.4500 270° West 410 472 38,000  Level Toronto Center
06:53PM 43.0500 -80.6167 262° West 410 472 38,000  Level Toronto Center
06:54PM 43.0500 -80.7667 270° West 410 472 38,000  Level Toronto Center
06:55PM 43.0333 -80.9333 262° West 410 472 38,000  Level Toronto Center
06:56PM 43.0167 -81.1000 262° West 410 472 38,000  Level Toronto Center
06:57PM 43.0167 -81.2333 270° West 400 460 38,000  Level Toronto Center
06:58PM 43.0167 -81.3833 270° West 390 449 38,000  Level Toronto Center
06:59PM 43.0167 -81.5333 270° West 380 437 38,000  Level Toronto Center
07:00PM 43.0167 -81.6667 270° West 380 437 38,000 -60 Level Toronto Center
07:01PM 43.0167 -81.8167 270° West 380 437 37,900  Descending Toronto Center
07:02PM 43.0000 -81.9667 261° West 380 437 38,000  Climbing Toronto Center
07:03PM 43.0000 -82.1167 270° West 390 449 38,000  Level Toronto Center
07:04PM 43.0000 -82.2500 270° West 390 449 38,000 -60 Level Toronto Center
07:05PM 43.0000 -82.3833 270° West 380 437 37,900 -180 Descending Toronto Center
07:06PM 43.0000 -82.5500 270° West 380 437 37,700 -540 Descending Toronto Center
07:07PM 43.0017 -82.6867 271° West 382 440 36,900 -1,020 Descending Cleveland Center
07:08PM 42.9969 -82.8314 267° West 382 440 35,800 -2,220 Descending Cleveland Center
07:09PM 42.9917 -82.9817 267° West 388 447 32,500 -1,920 Descending Cleveland Center
07:10PM 42.9883 -83.1378 268° West 399 459 32,000 -300 Descending Cleveland Center
07:11PM 42.9828 -83.2906 267° West 406 467 32,000  Level Cleveland Center
07:12PM 42.9772 -83.4381 267° West 401 461 32,000  Level Cleveland Center
07:13PM 42.9714 -83.5853 267° West 401 461 32,000  Level Cleveland Center
07:14PM 42.9653 -83.7383 267° West 401 461 32,000  Level Cleveland Center
07:15PM 42.9528 -83.8825 263° West 401 461 32,000  Level Cleveland Center
07:16PM 42.9381 -84.0292 262° West 401 461 32,000  Level Cleveland Center
07:17PM 42.9233 -84.1728 262° West 396 456 32,000  Level Cleveland Center
07:20PM 42.8914 -84.5186 263° West 387 445 32,000  Level Chicago Center
07:21PM 42.8761 -84.6631 262° West 385 443 32,000  Level Chicago Center
07:22PM 42.8603 -84.8108 262° West 393 452 32,000  Level Chicago Center
07:23PM 42.8453 -84.9594 262° West 396 456 32,000  Level Chicago Center
07:24PM 42.8256 -85.1378 261° West 397 457 32,000  Level Chicago Center
07:25PM 42.8094 -85.2875 262° West 398 458 32,000 -60 Level Chicago Center
07:26PM 42.7933 -85.4367 262° West 399 459 31,900 -1,260 Descending Chicago Center
07:27PM 42.7714 -85.5839 259° West 397 457 29,400 -2,460 Descending Chicago Center
07:28PM 42.7447 -85.7297 256° West 397 457 26,900 -2,580 Descending Chicago Center
07:29PM 42.7186 -85.8722 256° West 387 445 24,100 -2,580 Descending Chicago Center
07:30PM 42.6928 -86.0147 256° West 386 444 21,600 -2,040 Descending Chicago Center
07:31PM 42.6675 -86.1547 256° West 381 438 20,000 -780 Descending Chicago Center
07:32PM 42.6358 -86.3189 255° West 374 430 20,000 -60 Level Chicago Center
07:33PM 42.6097 -86.4586 256° West 380 437 19,900 -1,080 Descending Chicago Center
07:34PM 42.5847 -86.5947 256° West 374 430 17,800 -2,280 Descending Chicago Center
07:35PM 42.5597 -86.7322 256° West 374 430 15,200 -2,460 Descending Chicago Center
07:36PM 42.5239 -86.8611 249° West 369 425 12,800 -2,040 Descending Chicago Center
07:37PM 42.4914 -86.9831 250° West 345 397 11,000 -1,380 Descending Chicago Center
07:38PM 42.4536 -87.1150 249° West 307 353 10,000 -1,020 Descending Chicago Center
07:39PM 42.4267 -87.2122 249° West 279 321 9,000 -540 Descending Chicago Center
07:40PM 42.4008 -87.3114 251° West 279 321 9,000 -300 Level Chicago Center
07:41PM 42.3764 -87.4047 251° West 276 318 8,400 -1,020 Descending Chicago Center
07:42PM 42.3425 -87.5114 247° West 273 314 7,000 -720 Descending Chicago Center
07:43PM 42.2864 -87.5750 220° Southwest 259 298 7,000 -540 Level Chicago Center
07:44PM 42.2311 -87.6369 220° Southwest 258 297 5,900 -1,020 Descending Chicago Center
07:45PM 42.1781 -87.6958 219° Southwest 251 289 5,000 -960 Descending Chicago Center
07:46PM 42.1272 -87.7519 219° Southwest 242 278 4,000 -1,020 Descending Chicago Center